createdAt,value
2023-01-11T00:01:54.679Z,100.00
2023-01-11T00:04:21.410Z,99.75
2023-01-11T00:06:47.997Z,100.00
2023-01-11T00:09:16.157Z,96.81
2023-01-11T00:11:42.722Z,98.41
2023-01-11T00:14:09.238Z,99.27
2023-01-11T00:16:36.027Z,100.00
2023-01-11T00:19:02.757Z,100.00
2023-01-11T00:21:29.259Z,100.00
2023-01-11T00:23:56.104Z,100.00
2023-01-11T00:26:22.581Z,100.00
2023-01-11T00:28:49.713Z,100.00
2023-01-11T00:31:16.616Z,100.00
2023-01-11T00:33:43.173Z,100.00
2023-01-11T00:36:09.908Z,100.00
2023-01-11T00:38:51.912Z,100.00
2023-01-11T00:41:37.137Z,100.00
2023-01-11T00:44:22.690Z,100.00
2023-01-11T00:47:07.950Z,100.00
2023-01-11T00:49:34.842Z,100.00
2023-01-11T00:52:01.634Z,100.00
2023-01-11T00:54:28.120Z,100.00
2023-01-11T00:56:54.650Z,100.00
2023-01-11T00:59:21.140Z,100.00
2023-01-11T01:01:47.646Z,100.00
2023-01-11T01:04:14.229Z,100.00
2023-01-11T01:06:40.802Z,100.00
2023-01-11T01:09:07.502Z,100.00
2023-01-11T01:11:34.023Z,100.00
2023-01-11T01:14:18.908Z,100.00
2023-01-11T01:16:47.367Z,100.00
2023-01-11T01:19:14.461Z,100.00
2023-01-11T01:21:40.941Z,100.00
2023-01-11T01:24:07.542Z,100.00
2023-01-11T01:26:34.134Z,100.00
2023-01-11T01:29:00.649Z,100.00
2023-01-11T01:31:27.213Z,100.00
2023-01-11T01:33:53.761Z,100.00
2023-01-11T01:36:20.313Z,100.00
2023-01-11T01:38:46.849Z,100.00
2023-01-11T01:41:13.406Z,100.00
2023-01-11T01:43:59.717Z,100.00
2023-01-11T01:46:27.640Z,100.00
2023-01-11T01:48:58.411Z,100.00
2023-01-11T01:51:27.493Z,100.00
2023-01-11T01:53:56.608Z,100.00
2023-01-11T01:56:25.797Z,100.00
2023-01-11T01:58:55.676Z,100.00
2023-01-11T02:01:40.555Z,100.00
2023-01-11T02:04:10.665Z,100.00
2023-01-11T02:06:37.601Z,100.00
2023-01-11T02:13:21.667Z,100.00
2023-01-11T02:16:08.060Z,100.00
2023-01-11T02:18:35.952Z,100.00
2023-01-11T02:21:05.556Z,100.00
2023-01-11T02:23:52.677Z,100.00
2023-01-11T02:26:19.164Z,100.00
2023-01-11T02:28:54.353Z,100.00
2023-01-11T02:31:44.595Z,100.00
2023-01-11T02:34:14.187Z,100.00
2023-01-11T02:36:49.635Z,100.00
2023-01-11T02:39:28.267Z,100.00
2023-01-11T02:42:17.399Z,100.00
2023-01-11T02:45:01.568Z,100.00
2023-01-11T02:47:40.203Z,100.00
2023-01-11T02:50:13.073Z,100.00
2023-01-11T02:52:45.063Z,100.00
2023-01-11T02:55:13.481Z,100.00
2023-01-11T02:57:42.818Z,100.00
2023-01-11T03:00:10.480Z,100.00
2023-01-11T03:02:37.065Z,100.00
2023-01-11T03:05:10.644Z,100.00
2023-01-11T03:07:48.774Z,100.00
2023-01-11T03:10:25.009Z,100.00
2023-01-11T03:13:09.925Z,100.00
2023-01-11T03:15:36.441Z,100.00
2023-01-11T03:18:09.571Z,100.00
2023-01-11T03:20:41.991Z,100.00
2023-01-11T03:23:11.601Z,100.00
2023-01-11T03:25:47.870Z,100.00
2023-01-11T03:28:37.367Z,100.00
2023-01-11T03:31:03.913Z,100.00
2023-01-11T03:33:45.477Z,100.00
2023-01-11T03:36:19.853Z,100.00
2023-01-11T03:38:51.158Z,100.00
2023-01-11T03:41:21.483Z,100.00
2023-01-11T03:43:50.091Z,100.00
2023-01-11T03:46:21.217Z,100.00
2023-01-11T03:48:52.149Z,100.00
2023-01-11T03:51:20.956Z,100.00
2023-01-11T03:53:49.853Z,100.00
2023-01-11T03:56:18.668Z,100.00
2023-01-11T03:58:45.207Z,100.00
2023-01-11T04:01:12.552Z,100.00
2023-01-11T04:03:39.122Z,100.00
2023-01-11T04:06:05.885Z,100.00
2023-01-11T04:08:32.441Z,100.00
2023-01-11T04:10:58.960Z,100.00
2023-01-11T04:13:25.562Z,100.00
2023-01-11T04:15:52.980Z,100.00
2023-01-11T04:18:19.533Z,100.00
2023-01-11T04:20:46.415Z,100.00
2023-01-11T04:23:13.048Z,100.00
2023-01-11T04:25:39.557Z,100.00
2023-01-11T04:28:06.083Z,100.00
2023-01-11T04:30:32.670Z,100.00
2023-01-11T04:32:59.330Z,100.00
2023-01-11T04:35:26.247Z,100.00
2023-01-11T04:37:56.044Z,100.00
2023-01-11T04:40:22.870Z,100.00
2023-01-11T04:42:49.390Z,100.00
2023-01-11T04:45:15.899Z,100.00
2023-01-11T04:47:42.428Z,100.00
2023-01-11T04:50:09.412Z,100.00
2023-01-11T04:52:35.967Z,100.00
2023-01-11T04:55:02.507Z,100.00
2023-01-11T04:57:28.995Z,100.00
2023-01-11T04:59:55.546Z,100.00
2023-01-11T05:02:22.068Z,100.00
2023-01-11T05:04:48.563Z,100.00
2023-01-11T05:07:15.110Z,100.00
2023-01-11T05:09:41.651Z,100.00
2023-01-11T05:12:08.206Z,100.00
2023-01-11T05:14:34.812Z,100.00
2023-01-11T05:17:01.306Z,100.00
2023-01-11T05:19:27.829Z,100.00
2023-01-11T05:21:54.374Z,100.00
2023-01-11T05:24:20.880Z,100.00
2023-01-11T05:26:50.229Z,100.00
2023-01-11T05:29:16.824Z,100.00
2023-01-11T05:31:43.527Z,100.00
2023-01-11T05:34:12.142Z,100.00
2023-01-11T05:36:39.279Z,100.00
2023-01-11T05:39:06.298Z,100.00
2023-01-11T05:41:33.110Z,100.00
2023-01-11T05:44:18.126Z,100.00
2023-01-11T05:46:44.758Z,100.00
2023-01-11T05:49:12.507Z,100.00
2023-01-11T05:51:39.394Z,100.00
2023-01-11T05:54:07.306Z,100.00
2023-01-11T05:56:34.152Z,100.00
2023-01-11T05:59:00.670Z,100.00
2023-01-11T06:01:27.265Z,100.00
2023-01-11T06:03:53.780Z,100.00
2023-01-11T06:06:20.768Z,100.00
2023-01-11T06:08:47.290Z,100.00
2023-01-11T06:11:14.933Z,100.00
2023-01-11T06:13:41.594Z,100.00
2023-01-11T06:16:10.788Z,100.00
2023-01-11T06:18:38.694Z,100.00
2023-01-11T06:21:05.994Z,100.00
2023-01-11T06:23:33.452Z,100.00
2023-01-11T06:26:07.379Z,100.00
2023-01-11T06:28:33.927Z,100.00
2023-01-11T06:31:00.917Z,100.00
2023-01-11T06:33:28.063Z,100.00
2023-01-11T06:35:55.059Z,100.00
2023-01-11T06:38:22.245Z,100.00
2023-01-11T06:40:53.391Z,100.00
2023-01-11T06:43:20.113Z,100.00
2023-01-11T06:45:46.865Z,100.00
2023-01-11T06:48:13.367Z,100.00
2023-01-11T06:50:39.951Z,100.00
2023-01-11T06:53:06.441Z,100.00
2023-01-11T06:55:33.005Z,100.00
2023-01-11T06:57:59.616Z,100.00
2023-01-11T07:00:26.544Z,100.00
2023-01-11T07:02:53.095Z,100.00
2023-01-11T07:05:19.977Z,100.00
2023-01-11T07:07:46.578Z,100.00
2023-01-11T07:10:14.501Z,100.00
2023-01-11T07:12:41.172Z,100.00
2023-01-11T07:15:08.608Z,100.00
2023-01-11T07:17:35.433Z,100.00
2023-01-11T07:20:02.280Z,100.00
2023-01-11T07:22:28.794Z,100.00
2023-01-11T07:24:55.371Z,100.00
2023-01-11T07:27:21.905Z,100.00
2023-01-11T07:29:48.467Z,100.00
2023-01-11T07:32:14.989Z,100.00
2023-01-11T07:34:41.550Z,100.00
2023-01-11T07:37:28.076Z,96.07
2023-01-11T07:39:55.854Z,94.51
2023-01-11T07:42:40.621Z,91.57
2023-01-11T07:45:07.467Z,93.14
2023-01-11T07:47:33.998Z,94.51
2023-01-11T07:50:00.565Z,95.36
2023-01-11T07:52:27.118Z,95.86
2023-01-11T07:54:53.649Z,97.41
2023-01-11T07:57:20.201Z,98.92
2023-01-11T07:59:46.732Z,99.86
2023-01-11T08:02:13.257Z,96.41
2023-01-11T08:04:39.824Z,97.58
2023-01-11T08:07:06.293Z,99.73
2023-01-11T08:09:32.891Z,100.00
2023-01-11T08:12:17.959Z,100.00
2023-01-11T08:14:44.628Z,100.00
2023-01-11T08:17:12.580Z,100.00
2023-01-11T08:19:39.279Z,98.75
2023-01-11T08:22:06.187Z,96.22
2023-01-11T08:24:32.769Z,96.91
2023-01-11T08:26:59.294Z,97.22
2023-01-11T08:29:25.852Z,94.25
2023-01-11T08:31:52.483Z,92.47
2023-01-11T08:34:19.013Z,91.88
2023-01-11T08:36:45.569Z,93.88
2023-01-11T08:39:12.605Z,95.88
2023-01-11T08:41:39.283Z,93.34
2023-01-11T08:44:06.052Z,88.70
2023-01-11T08:46:34.323Z,88.17
2023-01-11T08:49:01.427Z,88.65
2023-01-11T08:51:27.912Z,87.41
2023-01-11T08:53:54.539Z,89.16
2023-01-11T08:56:21.109Z,88.47
2023-01-11T08:58:47.628Z,88.33
2023-01-11T09:01:14.177Z,88.21
2023-01-11T09:03:40.740Z,91.05
2023-01-11T09:06:07.432Z,89.23
2023-01-11T09:08:33.931Z,90.52
2023-01-11T09:11:00.759Z,91.91
2023-01-11T09:13:27.587Z,92.46
2023-01-11T09:15:57.598Z,93.72
2023-01-11T09:18:26.939Z,90.14
2023-01-11T09:20:54.343Z,86.66
2023-01-11T09:23:20.999Z,85.63
2023-01-11T09:25:47.511Z,86.65
2023-01-11T09:28:14.223Z,88.02
2023-01-11T09:30:40.758Z,87.04
2023-01-11T09:33:07.293Z,88.13
2023-01-11T09:35:35.003Z,88.16
2023-01-11T09:38:02.692Z,88.20
2023-01-11T09:40:37.029Z,87.59
2023-01-11T09:43:07.331Z,84.37
2023-01-11T09:45:35.512Z,83.66
2023-01-11T09:48:15.593Z,84.59
2023-01-11T09:50:45.637Z,85.70
2023-01-11T09:53:31.654Z,87.78
2023-01-11T09:56:01.455Z,82.49
2023-01-11T09:58:50.895Z,83.99
2023-01-11T10:01:27.828Z,84.66
2023-01-11T10:03:58.295Z,82.94
2023-01-11T10:06:33.465Z,84.35
2023-01-11T10:18:33.921Z,83.45
2023-01-11T10:18:40.174Z,82.93
2023-01-11T10:21:05.642Z,83.58
2023-01-11T10:23:54.283Z,83.36
2023-01-11T10:26:28.832Z,84.84
2023-01-11T10:29:24.260Z,83.85
2023-01-11T10:32:02.408Z,86.01
2023-01-11T10:34:56.851Z,86.86
2023-01-11T10:37:42.879Z,81.61
2023-01-11T10:40:38.014Z,84.25
2023-01-11T10:43:10.034Z,86.07
2023-01-11T10:45:43.621Z,84.95
2023-01-11T10:48:20.806Z,83.52
2023-01-11T10:50:57.329Z,83.83
2023-01-11T10:53:28.878Z,81.96
2023-01-11T10:55:55.378Z,79.59
2023-01-11T10:58:31.002Z,78.27
2023-01-11T11:01:24.562Z,77.72
2023-01-11T11:03:51.069Z,76.48
2023-01-11T11:06:17.586Z,79.40
2023-01-11T11:08:44.646Z,77.75
2023-01-11T11:11:37.543Z,77.81
2023-01-11T11:14:12.407Z,78.58
2023-01-11T11:16:51.136Z,78.02
2023-01-11T11:19:21.265Z,78.78
2023-01-11T11:21:48.839Z,81.29
2023-01-11T11:24:20.631Z,80.63
2023-01-11T11:26:52.287Z,79.44
2023-01-11T11:29:23.310Z,76.15
2023-01-11T11:31:50.937Z,74.14
2023-01-11T11:34:18.927Z,72.53
2023-01-11T11:36:52.133Z,71.81
2023-01-11T11:39:20.480Z,72.96
2023-01-11T11:41:48.670Z,74.31
2023-01-11T11:44:17.371Z,76.04
2023-01-11T11:46:56.267Z,74.71
2023-01-11T11:49:22.811Z,73.18
2023-01-11T11:51:50.809Z,78.51
2023-01-11T11:54:43.854Z,77.09
2023-01-11T11:57:20.832Z,73.83
2023-01-11T11:59:48.854Z,75.40
2023-01-11T12:02:22.335Z,74.43
2023-01-11T12:04:49.615Z,72.98
2023-01-11T12:07:18.562Z,70.73
2023-01-11T12:09:47.846Z,72.80
2023-01-11T12:12:19.323Z,72.44
2023-01-11T12:15:05.816Z,72.67
2023-01-11T12:17:32.317Z,74.48
2023-01-11T12:19:58.926Z,71.91
2023-01-11T12:22:27.132Z,68.80
2023-01-11T12:25:02.853Z,69.08
2023-01-11T12:27:47.354Z,69.40
2023-01-11T12:30:24.718Z,71.28
2023-01-11T12:33:10.035Z,73.39
2023-01-11T12:35:36.559Z,71.02
2023-01-11T12:38:03.008Z,74.90
2023-01-11T12:40:47.985Z,73.83
2023-01-11T12:43:35.283Z,75.76
2023-01-11T12:46:01.832Z,76.21
2023-01-11T12:48:38.400Z,77.17
2023-01-11T12:51:13.895Z,77.40
2023-01-11T12:53:56.885Z,77.52
2023-01-11T12:56:31.310Z,76.66
2023-01-11T12:59:09.860Z,70.83
2023-01-11T13:01:39.427Z,70.41
2023-01-11T13:04:14.744Z,69.63
2023-01-11T13:06:45.296Z,73.66
2023-01-11T13:09:20.869Z,73.79
2023-01-11T13:11:48.846Z,74.36
2023-01-11T13:14:29.595Z,74.40
2023-01-11T13:17:11.361Z,73.56
2023-01-11T13:20:01.265Z,73.86
2023-01-11T13:22:33.629Z,73.88
2023-01-11T13:25:02.002Z,72.76
2023-01-11T13:27:31.801Z,74.17
2023-01-11T13:30:00.551Z,75.03
2023-01-11T13:32:32.936Z,74.62
2023-01-11T13:35:20.186Z,73.22
2023-01-11T13:38:05.392Z,74.43
2023-01-11T13:40:35.678Z,74.44
2023-01-11T13:43:08.780Z,74.64
2023-01-11T13:45:37.064Z,76.11
2023-01-11T13:48:18.259Z,76.36
2023-01-11T13:50:48.549Z,77.58
2023-01-11T13:53:33.942Z,75.45
2023-01-11T13:56:06.396Z,76.01
2023-01-11T13:58:40.351Z,76.50
2023-01-11T14:01:08.300Z,76.13
2023-01-11T14:03:47.174Z,76.25
2023-01-11T14:06:25.802Z,78.19
2023-01-11T14:09:00.571Z,80.02
2023-01-11T14:11:36.356Z,80.62
2023-01-11T14:14:15.521Z,80.35
2023-01-11T14:20:33.368Z,79.55
2023-01-11T14:23:13.858Z,80.65
2023-01-11T14:25:43.399Z,82.13
2023-01-11T14:28:15.828Z,82.31
2023-01-11T14:30:42.402Z,82.70
2023-01-11T14:33:17.800Z,80.69
2023-01-11T14:36:00.406Z,81.37
2023-01-11T14:38:35.831Z,84.67
2023-01-11T14:41:11.271Z,82.74
2023-01-11T14:43:40.779Z,82.97
2023-01-11T14:46:25.928Z,82.57
2023-01-11T14:48:52.453Z,83.50
2023-01-11T14:51:32.684Z,84.44
2023-01-11T14:54:08.604Z,83.20
2023-01-11T14:56:36.839Z,82.92
2023-01-11T14:59:07.455Z,82.92
2023-01-11T15:01:52.751Z,83.88
2023-01-11T15:04:22.834Z,85.06
2023-01-11T15:06:54.436Z,85.77
2023-01-11T15:09:39.700Z,87.28
2023-01-11T15:12:11.664Z,88.05
2023-01-11T15:14:38.240Z,87.61
2023-01-11T15:17:23.400Z,87.67
2023-01-11T15:19:51.559Z,87.21
2023-01-11T15:22:31.039Z,87.79
2023-01-11T15:24:59.183Z,87.88
2023-01-11T15:27:27.555Z,89.12
2023-01-11T15:29:55.838Z,89.83
2023-01-11T15:32:27.613Z,90.31
2023-01-11T15:34:54.309Z,90.13
2023-01-11T15:37:20.784Z,91.18
2023-01-11T15:39:59.638Z,91.09
2023-01-11T15:42:55.511Z,91.76
2023-01-11T15:45:24.851Z,91.58
2023-01-11T15:47:51.348Z,93.00
2023-01-11T15:50:17.866Z,91.55
2023-01-11T15:53:03.019Z,91.18
2023-01-11T15:56:07.900Z,91.16
2023-01-11T15:59:05.073Z,92.82
2023-01-11T16:01:43.553Z,91.80
2023-01-11T16:04:23.836Z,92.51
2023-01-11T16:06:56.571Z,94.31
2023-01-11T16:09:27.577Z,95.17
2023-01-11T16:12:12.868Z,95.95
2023-01-11T16:14:57.968Z,96.63
2023-01-11T16:17:25.042Z,96.55
2023-01-11T16:19:56.708Z,96.61
2023-01-11T16:22:25.868Z,97.49
2023-01-11T16:24:57.608Z,98.24
2023-01-11T16:27:26.384Z,98.83
2023-01-11T16:29:53.052Z,99.23
2023-01-11T16:32:19.581Z,99.80
2023-01-11T16:34:50.240Z,100.00
2023-01-11T16:37:22.671Z,100.00
2023-01-11T16:39:51.728Z,100.00
2023-01-11T16:42:18.229Z,100.00
2023-01-11T16:45:01.597Z,100.00
2023-01-11T16:47:28.192Z,100.00
2023-01-11T16:50:13.311Z,100.00
2023-01-11T16:52:45.754Z,100.00
2023-01-11T16:55:20.159Z,100.00
2023-01-11T16:57:49.450Z,100.00
2023-01-11T17:00:22.179Z,100.00
2023-01-11T17:02:50.310Z,100.00
2023-01-11T17:05:23.849Z,100.00
2023-01-11T17:07:50.469Z,100.00
2023-01-11T17:10:22.460Z,100.00
2023-01-11T17:13:01.496Z,100.00
2023-01-11T17:15:34.171Z,100.00
2023-01-11T17:18:03.999Z,100.00
2023-01-11T17:20:31.412Z,100.00
2023-01-11T17:22:58.380Z,100.00
2023-01-11T17:25:29.586Z,100.00
2023-01-11T17:28:13.218Z,100.00
2023-01-11T17:30:39.782Z,100.00
2023-01-11T17:33:06.332Z,100.00
2023-01-11T17:35:39.167Z,100.00
2023-01-11T17:38:06.968Z,100.00
2023-01-11T17:40:38.218Z,100.00
2023-01-11T17:43:31.841Z,100.00
2023-01-11T17:45:58.866Z,100.00
2023-01-11T17:48:29.427Z,100.00
2023-01-11T17:50:57.939Z,100.00
2023-01-11T17:53:26.988Z,100.00
2023-01-11T17:55:55.463Z,100.00
2023-01-11T17:58:24.038Z,100.00
2023-01-11T18:01:09.179Z,100.00
2023-01-11T18:03:46.442Z,100.00
2023-01-11T18:06:15.952Z,100.00
2023-01-11T18:08:47.023Z,100.00
2023-01-11T18:11:21.398Z,100.00
2023-01-11T18:13:50.829Z,100.00
2023-01-11T18:16:19.421Z,100.00
2023-01-11T18:18:47.782Z,100.00
2023-01-11T18:21:26.554Z,100.00
2023-01-11T18:24:11.379Z,100.00
2023-01-11T18:26:39.378Z,100.00
2023-01-11T18:29:05.957Z,100.00
2023-01-11T18:31:32.828Z,100.00
2023-01-11T18:33:59.425Z,100.00
2023-01-11T18:36:27.616Z,100.00
2023-01-11T18:38:54.140Z,100.00
2023-01-11T18:41:39.108Z,100.00
2023-01-11T18:44:06.048Z,100.00
2023-01-11T18:46:32.698Z,100.00
2023-01-11T18:48:59.204Z,100.00
2023-01-11T18:51:33.826Z,100.00
2023-01-11T18:54:00.351Z,100.00
2023-01-11T18:56:26.890Z,100.00
2023-01-11T18:58:53.416Z,100.00
2023-01-11T19:01:20.022Z,100.00
2023-01-11T19:03:46.556Z,100.00
2023-01-11T19:06:13.301Z,100.00
2023-01-11T19:08:40.001Z,100.00
2023-01-11T19:11:06.571Z,100.00
2023-01-11T19:13:33.095Z,100.00
2023-01-11T19:16:02.486Z,100.00
2023-01-11T19:18:29.378Z,100.00
2023-01-11T19:21:00.686Z,100.00
2023-01-11T19:23:27.352Z,100.00
2023-01-11T19:25:57.999Z,100.00
2023-01-11T19:28:24.473Z,100.00
2023-01-11T19:30:51.089Z,100.00
2023-01-11T19:33:17.638Z,100.00
2023-01-11T19:35:44.493Z,100.00
2023-01-11T19:38:11.104Z,100.00
2023-01-11T19:40:37.934Z,100.00
2023-01-11T19:43:04.511Z,100.00
2023-01-11T19:45:31.085Z,100.00
2023-01-11T19:47:58.693Z,100.00
2023-01-11T19:50:25.200Z,100.00
2023-01-11T19:52:51.796Z,100.00
2023-01-11T19:55:18.359Z,100.00
2023-01-11T19:57:45.071Z,100.00
2023-01-11T20:00:14.260Z,100.00
2023-01-11T20:02:41.102Z,100.00
2023-01-11T20:05:07.769Z,100.00
2023-01-11T20:07:34.552Z,100.00
2023-01-11T20:10:01.136Z,100.00
2023-01-11T20:12:27.672Z,100.00
2023-01-11T20:14:57.756Z,100.00
2023-01-11T20:17:24.354Z,100.00
2023-01-11T20:19:54.633Z,100.00
2023-01-11T20:22:22.172Z,100.00
2023-01-11T20:24:48.767Z,100.00
2023-01-11T20:27:15.368Z,100.00
2023-01-11T20:29:43.886Z,99.59
2023-01-11T20:32:34.990Z,97.76
2023-01-11T20:34:57.278Z,99.54
2023-01-11T20:37:23.852Z,100.00
2023-01-11T20:39:50.502Z,100.00
2023-01-11T20:42:17.001Z,100.00
2023-01-11T20:44:43.551Z,100.00
2023-01-11T20:47:10.124Z,100.00
2023-01-11T20:49:36.766Z,100.00
2023-01-11T20:52:03.368Z,100.00
2023-01-11T20:54:29.916Z,100.00
2023-01-11T20:57:02.078Z,100.00
2023-01-11T20:59:28.771Z,100.00
2023-01-11T21:01:55.360Z,100.00
2023-01-11T21:04:21.929Z,100.00
2023-01-11T21:06:48.520Z,100.00
2023-01-11T21:09:16.404Z,100.00
2023-01-11T21:11:44.200Z,100.00
2023-01-11T21:14:13.949Z,100.00
2023-01-11T21:16:41.566Z,100.00
2023-01-11T21:19:10.588Z,100.00
2023-01-11T21:21:37.165Z,100.00
2023-01-11T21:24:04.213Z,100.00
2023-01-11T21:26:31.748Z,100.00
2023-01-11T21:28:59.776Z,100.00
2023-01-11T21:31:27.581Z,100.00
2023-01-11T21:33:54.535Z,100.00
2023-01-11T21:36:22.621Z,100.00
2023-01-11T21:38:49.224Z,100.00
2023-01-11T21:41:16.973Z,100.00
2023-01-11T21:43:44.911Z,100.00
2023-01-11T21:46:12.589Z,100.00
2023-01-11T21:48:39.183Z,100.00
2023-01-11T21:51:11.464Z,100.00
2023-01-11T21:53:38.332Z,100.00
2023-01-11T21:56:06.959Z,100.00
2023-01-11T21:58:34.174Z,100.00
2023-01-11T22:01:08.614Z,100.00
2023-01-11T22:03:35.461Z,100.00
2023-01-11T22:06:02.684Z,100.00
2023-01-11T22:08:29.741Z,100.00
2023-01-11T22:10:57.285Z,100.00
2023-01-11T22:13:23.838Z,100.00
2023-01-11T22:15:50.395Z,100.00
2023-01-11T22:18:17.049Z,100.00
2023-01-11T22:20:43.623Z,100.00
2023-01-11T22:23:10.273Z,100.00
2023-01-11T22:25:36.819Z,100.00
2023-01-11T22:28:04.051Z,100.00
2023-01-11T22:30:30.570Z,100.00
2023-01-11T22:32:59.151Z,100.00
2023-01-11T22:35:25.809Z,100.00
2023-01-11T22:37:52.378Z,100.00
2023-01-11T22:40:18.910Z,100.00
2023-01-11T22:42:45.449Z,100.00
2023-01-11T22:45:11.981Z,100.00
2023-01-11T22:47:38.569Z,100.00
2023-01-11T22:50:05.453Z,100.00
2023-01-11T22:52:33.019Z,100.00
2023-01-11T22:54:59.556Z,100.00
2023-01-11T22:57:26.060Z,100.00
2023-01-11T22:59:52.584Z,100.00
2023-01-11T23:02:19.108Z,100.00
2023-01-11T23:04:45.697Z,100.00
2023-01-11T23:07:12.193Z,100.00
2023-01-11T23:09:38.769Z,100.00
2023-01-11T23:12:23.996Z,100.00
2023-01-11T23:14:50.509Z,100.00
2023-01-11T23:17:19.006Z,100.00
2023-01-11T23:19:45.673Z,100.00
2023-01-11T23:22:15.234Z,100.00
2023-01-11T23:24:42.636Z,100.00
2023-01-11T23:27:09.211Z,100.00
2023-01-11T23:29:35.985Z,100.00
2023-01-11T23:32:02.732Z,100.00
2023-01-11T23:34:29.354Z,100.00
2023-01-11T23:36:55.902Z,100.00
2023-01-11T23:39:23.845Z,100.00
2023-01-11T23:42:09.009Z,100.00
2023-01-11T23:44:35.973Z,100.00
2023-01-11T23:47:20.859Z,100.00
2023-01-11T23:50:03.051Z,100.00
2023-01-11T23:52:30.672Z,100.00
2023-01-11T23:54:57.527Z,100.00
2023-01-11T23:57:24.909Z,100.00
2023-01-11T23:59:51.409Z,100.00
